createdAt,value
2018-02-20T00:00:55.102Z,47.66
2018-02-20T00:01:57.569Z,47.73
2018-02-20T00:03:00.058Z,47.78
2018-02-20T00:04:02.545Z,47.83
2018-02-20T00:05:05.038Z,47.85
2018-02-20T00:06:07.526Z,47.87
2018-02-20T00:07:10.015Z,47.95
2018-02-20T00:08:12.486Z,47.99
2018-02-20T00:09:14.960Z,48.03
2018-02-20T00:10:17.426Z,48.05
2018-02-20T00:11:19.918Z,48.07
2018-02-20T00:12:22.412Z,48.13
2018-02-20T00:13:24.894Z,48.16
2018-02-20T00:14:27.388Z,48.19
2018-02-20T00:15:29.851Z,48.22
2018-02-20T00:16:32.313Z,48.23
2018-02-20T00:17:34.797Z,48.22
2018-02-20T00:18:37.281Z,48.34
2018-02-20T00:19:39.747Z,48.33
2018-02-20T00:20:42.241Z,48.32
2018-02-20T00:21:44.711Z,48.29
2018-02-20T00:22:47.174Z,48.34
2018-02-20T00:23:49.643Z,48.38
2018-02-20T00:24:52.121Z,48.38
2018-02-20T00:25:54.590Z,48.47
2018-02-20T00:26:57.065Z,48.46
2018-02-20T00:27:59.539Z,48.52
2018-02-20T00:29:02.017Z,48.53
2018-02-20T00:30:04.483Z,48.67
2018-02-20T00:31:06.951Z,48.75
2018-02-20T00:32:09.442Z,48.75
2018-02-20T00:33:11.925Z,48.73
2018-02-20T00:34:14.404Z,48.79
2018-02-20T00:35:16.885Z,48.82
2018-02-20T00:36:19.370Z,48.78
2018-02-20T00:37:21.871Z,48.86
2018-02-20T00:38:24.346Z,48.90
2018-02-20T00:39:26.811Z,48.93
2018-02-20T00:40:29.296Z,48.95
2018-02-20T00:41:31.770Z,48.98
2018-02-20T00:42:34.244Z,48.99
2018-02-20T00:43:36.722Z,49.06
2018-02-20T00:44:39.204Z,49.08
2018-02-20T00:45:41.673Z,49.16
2018-02-20T00:46:44.154Z,49.29
2018-02-20T00:47:46.618Z,49.42
2018-02-20T00:48:49.092Z,49.43
2018-02-20T00:49:51.577Z,49.50
2018-02-20T00:50:54.038Z,49.44
2018-02-20T00:51:56.512Z,49.47
2018-02-20T00:52:58.978Z,49.49
2018-02-20T00:54:01.472Z,49.49
2018-02-20T00:55:03.953Z,49.46
2018-02-20T00:56:06.421Z,49.52
2018-02-20T00:57:08.887Z,49.67
2018-02-20T00:58:11.341Z,49.88
2018-02-20T00:59:13.808Z,49.78
2018-02-20T01:00:16.288Z,49.75
2018-02-20T01:01:18.768Z,49.71
2018-02-20T01:02:21.234Z,49.73
2018-02-20T01:03:23.720Z,49.72
2018-02-20T01:04:26.200Z,49.71
2018-02-20T01:05:28.678Z,49.66
2018-02-20T01:06:31.170Z,49.62
2018-02-20T01:07:33.647Z,49.64
2018-02-20T01:08:36.121Z,49.81
2018-02-20T01:09:38.604Z,49.82
2018-02-20T01:10:41.085Z,49.88
2018-02-20T01:11:43.568Z,49.83
2018-02-20T01:12:46.034Z,49.76
2018-02-20T01:13:48.518Z,49.75
2018-02-20T01:14:51.000Z,49.82
2018-02-20T01:15:53.454Z,49.70
2018-02-20T01:16:55.928Z,49.57
2018-02-20T01:17:58.420Z,49.46
2018-02-20T01:19:00.886Z,49.45
2018-02-20T01:20:03.358Z,49.52
2018-02-20T01:21:05.826Z,49.55
2018-02-20T01:22:08.334Z,49.58
2018-02-20T01:23:10.808Z,49.61
2018-02-20T01:24:13.296Z,49.69
2018-02-20T01:25:15.770Z,49.70
2018-02-20T01:26:18.237Z,49.73
2018-02-20T01:27:20.710Z,49.76
2018-02-20T01:28:23.186Z,49.74
2018-02-20T01:29:25.692Z,49.83
2018-02-20T01:30:28.154Z,49.88
2018-02-20T01:58:37.442Z,50.62
2018-02-20T01:59:39.932Z,50.70
2018-02-20T02:00:42.421Z,50.64
2018-02-20T02:01:44.896Z,50.76
2018-02-20T02:02:47.374Z,50.82
2018-02-20T02:03:49.865Z,50.80
2018-02-20T02:04:52.338Z,50.61
2018-02-20T02:05:54.810Z,50.55
2018-02-20T02:06:57.288Z,50.48
2018-02-20T02:07:59.755Z,50.77
2018-02-20T02:09:02.235Z,51.24
2018-02-20T02:10:04.725Z,51.10
2018-02-20T02:11:07.217Z,51.03
2018-02-20T02:12:09.701Z,50.88
2018-02-20T02:13:12.221Z,50.71
2018-02-20T02:14:14.687Z,50.66
2018-02-20T02:54:16.944Z,52.07
2018-02-20T02:55:19.416Z,52.20
2018-02-20T02:56:21.895Z,52.29
2018-02-20T02:57:24.369Z,52.35
2018-02-20T02:58:26.852Z,52.34
2018-02-20T02:59:29.336Z,52.35
2018-02-20T03:00:31.826Z,52.24
2018-02-20T03:01:34.303Z,52.32
2018-02-20T03:02:36.775Z,52.36
2018-02-20T03:03:39.251Z,52.26
2018-02-20T03:04:41.738Z,52.41
2018-02-20T03:05:44.239Z,52.42
2018-02-20T03:06:46.726Z,52.30
2018-02-20T03:07:49.227Z,52.15
2018-02-20T03:08:51.707Z,52.13
2018-02-20T03:09:54.235Z,52.12
2018-02-20T03:10:56.718Z,52.14
2018-02-20T03:11:59.209Z,52.17
2018-02-20T03:13:01.699Z,52.21
2018-02-20T03:14:04.171Z,52.17
2018-02-20T03:15:06.649Z,52.25
2018-02-20T03:16:09.139Z,52.26
2018-02-20T03:17:11.615Z,52.16
2018-02-20T03:18:14.101Z,52.30
2018-02-20T03:19:16.652Z,52.11
2018-02-20T03:20:19.138Z,52.17
2018-02-20T03:21:21.641Z,52.20
2018-02-20T03:22:24.131Z,52.23
2018-02-20T03:23:26.611Z,52.18
2018-02-20T03:24:29.101Z,52.21
2018-02-20T03:25:31.592Z,52.09
2018-02-20T03:26:34.100Z,52.08
2018-02-20T03:27:36.589Z,52.25
2018-02-20T03:28:39.076Z,52.51
2018-02-20T03:29:41.570Z,52.49
2018-02-20T03:30:44.040Z,52.41
2018-02-20T03:31:46.521Z,52.43
2018-02-20T03:32:49.005Z,52.40
2018-02-20T03:33:51.483Z,52.32
2018-02-20T03:34:54.010Z,52.23
2018-02-20T03:35:56.467Z,52.28
2018-02-20T03:36:58.958Z,52.35
2018-02-20T03:38:01.457Z,52.51
2018-02-20T03:39:03.940Z,52.42
2018-02-20T03:40:06.437Z,52.35
2018-02-20T03:41:08.914Z,52.43
2018-02-20T03:42:11.384Z,52.49
2018-02-20T03:43:13.873Z,52.54
2018-02-20T03:44:16.355Z,52.58
2018-02-20T03:45:18.845Z,52.67
2018-02-20T03:46:21.352Z,52.72
2018-02-20T03:47:23.823Z,52.73
2018-02-20T03:48:26.325Z,52.78
2018-02-20T03:49:28.811Z,52.78
2018-02-20T03:50:31.322Z,52.80
2018-02-20T03:51:33.791Z,52.83
2018-02-20T03:52:36.286Z,52.84
2018-02-20T03:53:38.769Z,52.78
2018-02-20T03:54:41.258Z,52.81
2018-02-20T03:55:43.762Z,52.89
2018-02-20T03:56:46.238Z,52.82
2018-02-20T03:57:48.741Z,52.77
2018-02-20T03:58:51.215Z,52.76
2018-02-20T03:59:53.701Z,52.75
2018-02-20T04:00:56.214Z,52.75
2018-02-20T04:01:58.692Z,52.78
2018-02-20T04:03:01.182Z,52.77
2018-02-20T04:04:03.678Z,52.76
2018-02-20T04:05:06.165Z,52.77
2018-02-20T04:06:08.661Z,52.77
2018-02-20T04:07:11.146Z,52.83
2018-02-20T04:08:13.619Z,52.96
2018-02-20T04:09:16.105Z,53.02
2018-02-20T04:10:18.579Z,53.01
2018-02-20T04:11:21.073Z,53.07
2018-02-20T04:12:23.650Z,53.09
2018-02-20T04:13:26.119Z,53.16
2018-02-20T04:14:28.613Z,53.03
2018-02-20T04:15:31.086Z,53.07
2018-02-20T04:16:33.577Z,53.02
2018-02-20T04:17:36.081Z,52.99
2018-02-20T04:18:38.558Z,53.07
2018-02-20T04:19:41.049Z,52.96
2018-02-20T04:20:43.537Z,52.89
2018-02-20T04:21:46.021Z,52.88
2018-02-20T04:22:48.491Z,53.01
2018-02-20T04:23:50.986Z,53.05
2018-02-20T04:24:53.467Z,52.99
2018-02-20T04:25:55.962Z,52.91
2018-02-20T04:26:58.431Z,52.98
2018-02-20T04:28:00.911Z,53.01
2018-02-20T04:29:03.398Z,53.08
2018-02-20T04:30:05.889Z,53.06
2018-02-20T04:31:08.379Z,53.10
2018-02-20T04:32:10.869Z,53.00
2018-02-20T04:33:13.353Z,52.97
2018-02-20T04:34:15.845Z,52.82
2018-02-20T04:35:18.329Z,52.80
2018-02-20T04:36:20.817Z,52.79
2018-02-20T04:37:23.289Z,52.74
2018-02-20T04:38:25.763Z,52.85
2018-02-20T04:39:28.235Z,52.94
2018-02-20T04:40:30.714Z,53.10
2018-02-20T04:41:33.191Z,53.19
2018-02-20T04:42:35.663Z,53.39
2018-02-20T04:43:38.145Z,53.46
2018-02-20T04:44:40.635Z,53.50
2018-02-20T04:45:43.129Z,53.49
2018-02-20T04:46:45.603Z,53.50
2018-02-20T04:47:48.075Z,53.56
2018-02-20T04:48:50.561Z,53.52
2018-02-20T04:49:53.037Z,53.49
2018-02-20T04:50:55.522Z,53.49
2018-02-20T04:51:57.992Z,53.47
2018-02-20T04:53:00.477Z,53.53
2018-02-20T04:54:02.953Z,53.63
2018-02-20T04:55:05.427Z,53.65
2018-02-20T04:56:07.898Z,53.46
2018-02-20T04:57:10.382Z,53.36
2018-02-20T04:58:12.877Z,53.31
2018-02-20T04:59:15.357Z,53.35
2018-02-20T05:00:17.835Z,53.45
2018-02-20T05:01:20.332Z,53.56
2018-02-20T05:02:22.857Z,53.63
2018-02-20T05:03:25.335Z,53.62
2018-02-20T05:04:27.802Z,53.62
2018-02-20T05:05:30.289Z,53.66
2018-02-20T05:06:32.768Z,53.64
2018-02-20T05:07:35.257Z,53.64
2018-02-20T05:08:37.735Z,53.51
2018-02-20T05:09:40.206Z,53.57
2018-02-20T05:10:42.698Z,53.64
2018-02-20T05:11:45.174Z,53.75
2018-02-20T05:12:47.662Z,53.81
2018-02-20T05:13:50.140Z,53.80
2018-02-20T05:14:52.611Z,53.77
2018-02-20T05:15:55.103Z,53.77
2018-02-20T05:16:57.579Z,54.04
2018-02-20T05:18:00.069Z,53.82
2018-02-20T05:19:02.551Z,53.87
2018-02-20T05:20:05.024Z,53.99
2018-02-20T05:21:07.499Z,53.93
2018-02-20T05:22:10.013Z,53.81
2018-02-20T05:23:12.482Z,53.85
2018-02-20T05:24:14.972Z,53.87
2018-02-20T05:25:17.468Z,53.86
2018-02-20T05:26:19.956Z,53.92
2018-02-20T05:27:22.455Z,53.94
2018-02-20T05:28:24.927Z,54.00
2018-02-20T05:29:27.403Z,54.01
2018-02-20T05:30:29.922Z,54.01
2018-02-20T05:31:32.418Z,53.91
2018-02-20T05:32:34.892Z,53.95
2018-02-20T05:33:37.381Z,53.99
2018-02-20T05:34:39.855Z,53.91
2018-02-20T05:35:42.349Z,53.86
2018-02-20T05:36:44.818Z,53.77
2018-02-20T05:37:47.305Z,53.75
2018-02-20T05:38:49.778Z,53.83
2018-02-20T05:39:52.350Z,53.96
2018-02-20T05:40:54.837Z,53.92
2018-02-20T05:41:57.311Z,53.92
2018-02-20T05:42:59.798Z,53.95
2018-02-20T05:44:02.288Z,53.86
2018-02-20T05:45:04.759Z,53.81
2018-02-20T05:46:07.253Z,53.87
2018-02-20T05:47:09.727Z,53.86
2018-02-20T05:48:12.217Z,53.87
2018-02-20T05:49:14.687Z,53.88
2018-02-20T05:50:17.163Z,53.87
2018-02-20T05:51:19.643Z,53.93
2018-02-20T05:52:22.120Z,54.00
2018-02-20T05:53:24.609Z,54.14
2018-02-20T05:54:27.085Z,54.05
2018-02-20T05:55:29.669Z,54.05
2018-02-20T05:56:32.157Z,54.05
2018-02-20T05:57:34.645Z,54.04
2018-02-20T05:58:37.140Z,54.03
2018-02-20T05:59:39.637Z,53.82
2018-02-20T06:00:42.130Z,53.87
2018-02-20T06:01:44.628Z,53.97
2018-02-20T06:02:47.117Z,53.93
2018-02-20T06:03:49.594Z,53.83
2018-02-20T06:04:52.081Z,53.94
2018-02-20T06:05:54.554Z,54.04
2018-02-20T06:06:57.193Z,54.11
2018-02-20T06:07:59.717Z,54.17
2018-02-20T06:09:02.206Z,54.12
2018-02-20T06:10:04.683Z,54.38
2018-02-20T06:11:07.169Z,54.40
2018-02-20T06:12:09.641Z,54.30
2018-02-20T06:13:12.162Z,54.28
2018-02-20T06:14:14.631Z,54.20
2018-02-20T06:15:17.103Z,54.10
2018-02-20T06:16:19.567Z,54.03
2018-02-20T06:17:22.050Z,54.13
2018-02-20T06:18:24.555Z,54.03
2018-02-20T06:19:27.031Z,53.95
2018-02-20T06:20:29.512Z,54.03
2018-02-20T06:21:32.006Z,54.32
2018-02-20T06:22:34.479Z,54.49
2018-02-20T06:23:36.986Z,54.66
2018-02-20T06:24:39.472Z,54.64
2018-02-20T06:25:42.036Z,54.54
2018-02-20T06:26:44.502Z,54.50
2018-02-20T06:27:46.970Z,54.46
2018-02-20T06:28:49.461Z,54.69
2018-02-20T06:29:51.940Z,54.78
2018-02-20T06:30:54.416Z,54.82
2018-02-20T06:31:56.897Z,54.83
2018-02-20T06:32:59.390Z,54.95
2018-02-20T06:34:01.870Z,54.45
2018-02-20T06:35:04.390Z,54.49
2018-02-20T06:36:06.882Z,54.39
2018-02-20T06:37:09.404Z,54.21
2018-02-20T06:38:11.875Z,54.20
2018-02-20T06:39:14.424Z,54.33
2018-02-20T06:40:16.903Z,53.97
2018-02-20T06:41:19.379Z,53.89
2018-02-20T06:42:21.868Z,54.10
2018-02-20T06:43:24.362Z,54.01
2018-02-20T06:44:26.861Z,54.03
2018-02-20T06:45:29.347Z,54.15
2018-02-20T06:46:31.819Z,53.34
2018-02-20T06:47:34.329Z,53.02
2018-02-20T06:48:36.798Z,52.58
2018-02-20T06:49:39.290Z,51.59
2018-02-20T06:50:41.783Z,50.79
2018-02-20T06:51:44.264Z,50.00
2018-02-20T06:52:46.757Z,49.88
2018-02-20T06:53:49.253Z,49.74
2018-02-20T06:54:51.741Z,49.56
2018-02-20T06:55:54.234Z,49.20
2018-02-20T06:56:56.734Z,49.12
2018-02-20T06:57:59.216Z,48.05
2018-02-20T06:59:01.700Z,47.94
2018-02-20T07:00:04.296Z,47.74
2018-02-20T07:01:06.783Z,47.27
2018-02-20T07:02:09.284Z,46.59
2018-02-20T07:03:11.806Z,45.14
2018-02-20T07:04:14.322Z,43.26
2018-02-20T07:05:16.839Z,42.05
2018-02-20T07:06:19.361Z,41.73
2018-02-20T07:07:21.865Z,41.86
2018-02-20T07:08:24.356Z,42.05
2018-02-20T07:09:26.836Z,41.83
2018-02-20T07:10:29.340Z,41.61
2018-02-20T07:11:31.837Z,41.36
2018-02-20T07:12:34.330Z,41.18
2018-02-20T07:13:36.836Z,40.90
2018-02-20T07:14:39.359Z,40.64
2018-02-20T07:15:41.845Z,40.48
2018-02-20T07:16:44.352Z,40.37
2018-02-20T07:17:46.836Z,40.32
2018-02-20T07:18:49.341Z,39.99
2018-02-20T07:19:51.835Z,39.41
2018-02-20T07:20:54.324Z,38.97
2018-02-20T07:21:56.821Z,38.83
2018-02-20T07:22:59.301Z,38.65
2018-02-20T07:24:01.798Z,38.45
2018-02-20T07:25:04.293Z,38.32
2018-02-20T07:26:06.775Z,38.24
2018-02-20T07:27:09.256Z,38.04
2018-02-20T07:28:11.767Z,37.82
2018-02-20T07:29:14.257Z,37.69
2018-02-20T07:30:16.756Z,37.68
2018-02-20T07:31:19.250Z,37.73
2018-02-20T07:32:21.736Z,37.92
2018-02-20T07:33:24.226Z,38.37
2018-02-20T07:34:26.707Z,38.52
2018-02-20T07:35:29.183Z,39.04
2018-02-20T07:36:31.663Z,39.32
2018-02-20T07:37:34.165Z,39.30
2018-02-20T07:38:36.769Z,39.67
2018-02-20T07:39:39.260Z,39.94
2018-02-20T07:40:41.761Z,40.24
2018-02-20T07:41:44.257Z,40.37
2018-02-20T07:42:46.836Z,40.51
2018-02-20T07:43:49.334Z,40.74
2018-02-20T07:44:51.816Z,41.03
2018-02-20T07:45:54.312Z,41.31
2018-02-20T07:46:56.815Z,41.56
2018-02-20T07:47:59.366Z,41.64
2018-02-20T07:49:01.866Z,42.02
2018-02-20T07:50:04.351Z,42.18
2018-02-20T07:51:06.858Z,42.33
2018-02-20T07:52:09.375Z,42.51
2018-02-20T07:53:12.113Z,42.65
2018-02-20T07:54:14.626Z,42.81
2018-02-20T07:55:17.124Z,42.89
2018-02-20T07:56:19.622Z,43.00
2018-02-20T07:57:22.118Z,43.09
2018-02-20T07:58:24.599Z,43.22
2018-02-20T07:59:27.079Z,43.46
2018-02-20T08:00:29.568Z,43.96
2018-02-20T08:01:32.059Z,43.93
2018-02-20T08:02:34.557Z,44.37
2018-02-20T08:03:37.043Z,44.26
2018-02-20T08:04:39.522Z,44.37
2018-02-20T08:05:42.037Z,44.37
2018-02-20T08:06:44.534Z,44.43
2018-02-20T08:07:47.029Z,44.60
2018-02-20T08:08:49.533Z,44.62
2018-02-20T08:09:52.019Z,44.66
2018-02-20T08:10:54.559Z,44.77
2018-02-20T08:11:57.036Z,44.88
2018-02-20T08:12:59.539Z,45.01
2018-02-20T08:14:02.041Z,45.13
2018-02-20T08:15:04.519Z,45.20
2018-02-20T08:16:07.012Z,45.34
2018-02-20T08:17:09.521Z,45.31
2018-02-20T08:18:12.011Z,45.30
2018-02-20T08:19:14.509Z,45.39
2018-02-20T08:20:16.991Z,45.40
2018-02-20T08:21:19.531Z,45.44
2018-02-20T08:22:22.026Z,45.49
2018-02-20T08:23:24.521Z,45.59
2018-02-20T08:24:27.003Z,45.71
2018-02-20T08:25:29.483Z,45.84
2018-02-20T08:26:31.977Z,45.89
2018-02-20T08:27:34.454Z,45.91
2018-02-20T08:28:36.949Z,46.01
2018-02-20T08:29:39.448Z,46.14
2018-02-20T08:30:41.983Z,46.26
2018-02-20T08:31:44.483Z,46.34
2018-02-20T08:32:46.967Z,46.42
2018-02-20T08:33:49.447Z,46.50
2018-02-20T08:34:51.936Z,46.59
2018-02-20T08:35:54.427Z,46.66
2018-02-20T08:36:56.923Z,46.73
2018-02-20T08:37:59.408Z,46.79
2018-02-20T08:39:01.915Z,46.84
2018-02-20T08:40:04.409Z,46.86
2018-02-20T08:41:06.887Z,46.93
2018-02-20T08:42:09.368Z,46.95
2018-02-20T08:43:11.880Z,46.96
2018-02-20T08:44:14.363Z,47.00
2018-02-20T08:45:16.865Z,46.99
2018-02-20T08:46:19.439Z,47.03
2018-02-20T08:47:21.930Z,47.10
2018-02-20T08:48:24.399Z,47.15
2018-02-20T08:49:26.901Z,47.20
2018-02-20T08:50:29.389Z,47.22
2018-02-20T08:51:31.883Z,47.22
2018-02-20T08:52:34.399Z,47.25
2018-02-20T08:53:36.865Z,47.28
2018-02-20T08:54:39.374Z,47.30
2018-02-20T08:55:41.904Z,47.33
2018-02-20T08:56:44.402Z,47.47
2018-02-20T08:57:46.905Z,47.59
2018-02-20T08:58:49.398Z,47.61
2018-02-20T08:59:51.893Z,47.68
2018-02-20T09:00:54.382Z,47.68
2018-02-20T09:01:56.920Z,47.65
2018-02-20T09:02:59.414Z,47.61
2018-02-20T09:04:01.906Z,47.65
2018-02-20T09:05:04.384Z,47.65
2018-02-20T09:06:06.859Z,47.76
2018-02-20T09:07:09.377Z,47.72
2018-02-20T09:08:11.855Z,47.75
2018-02-20T09:09:14.350Z,47.82
2018-02-20T09:10:16.835Z,47.95
2018-02-20T09:11:19.326Z,47.99
2018-02-20T09:12:21.807Z,48.04
2018-02-20T09:13:24.296Z,48.08
2018-02-20T09:14:26.776Z,48.24
2018-02-20T09:15:29.252Z,48.37
2018-02-20T09:16:31.732Z,48.50
2018-02-20T09:17:34.207Z,48.56
2018-02-20T09:18:36.731Z,48.61
2018-02-20T09:19:39.237Z,48.65
2018-02-20T09:20:41.724Z,48.60
2018-02-20T09:21:44.217Z,48.54
2018-02-20T09:22:46.708Z,48.50
2018-02-20T09:23:49.183Z,48.44
2018-02-20T09:24:51.668Z,48.51
2018-02-20T09:25:54.156Z,48.59
2018-02-20T09:26:57.163Z,48.65
2018-02-20T09:27:59.659Z,48.69
2018-02-20T09:29:02.182Z,48.71
2018-02-20T09:30:04.714Z,48.68
2018-02-20T09:31:07.228Z,48.64
2018-02-20T09:32:09.722Z,48.68
2018-02-20T09:33:12.222Z,48.70
2018-02-20T09:34:14.705Z,48.63
2018-02-20T09:35:17.184Z,48.55
2018-02-20T09:36:19.968Z,48.51
2018-02-20T09:37:22.493Z,48.52
2018-02-20T09:38:24.975Z,48.56
2018-02-20T09:39:27.629Z,48.56
2018-02-20T09:40:30.188Z,48.59
2018-02-20T09:41:32.664Z,48.55
2018-02-20T09:42:35.157Z,48.56
2018-02-20T09:43:37.638Z,48.64
2018-02-20T09:44:40.116Z,48.50
2018-02-20T09:45:42.605Z,48.03
2018-02-20T09:46:45.102Z,47.68
2018-02-20T09:47:47.580Z,46.40
2018-02-20T09:48:50.073Z,44.47
2018-02-20T09:49:52.557Z,44.25
2018-02-20T09:50:55.039Z,43.72
2018-02-20T09:51:57.534Z,43.37
2018-02-20T09:53:00.042Z,42.85
2018-02-20T09:54:02.537Z,42.70
2018-02-20T09:55:05.020Z,42.50
2018-02-20T09:56:07.518Z,42.21
2018-02-20T09:57:10.040Z,42.07
2018-02-20T09:58:12.537Z,41.96
2018-02-20T09:59:15.028Z,41.78
2018-02-20T10:00:17.519Z,41.70
2018-02-20T10:01:20.015Z,41.60
2018-02-20T10:02:22.495Z,41.60
2018-02-20T10:03:24.978Z,41.52
2018-02-20T10:04:27.450Z,41.48
2018-02-20T10:05:29.949Z,41.40
2018-02-20T10:06:32.436Z,41.36
2018-02-20T10:07:34.929Z,41.31
2018-02-20T10:08:37.427Z,41.26
2018-02-20T10:09:39.908Z,41.23
2018-02-20T10:10:42.392Z,41.21
2018-02-20T10:11:44.869Z,41.15
2018-02-20T10:12:47.355Z,41.25
2018-02-20T10:13:49.977Z,41.45
2018-02-20T10:14:52.465Z,41.61
2018-02-20T10:15:54.973Z,41.68
2018-02-20T10:16:57.560Z,41.73
2018-02-20T10:18:00.054Z,41.77
2018-02-20T10:19:02.541Z,41.76
2018-02-20T10:20:05.029Z,41.75
2018-02-20T10:21:07.526Z,41.85
2018-02-20T10:22:10.003Z,41.82
2018-02-20T10:23:12.491Z,41.82
2018-02-20T10:24:14.985Z,41.81
2018-02-20T10:25:17.460Z,41.85
2018-02-20T10:26:19.964Z,41.89
2018-02-20T10:27:22.456Z,41.96
2018-02-20T10:28:24.949Z,42.01
2018-02-20T10:29:27.425Z,42.04
2018-02-20T10:30:29.911Z,42.04
2018-02-20T10:31:32.413Z,42.11
2018-02-20T10:32:34.908Z,42.10
2018-02-20T10:33:37.448Z,42.03
2018-02-20T10:34:39.941Z,42.01
2018-02-20T10:35:42.434Z,42.03
2018-02-20T10:36:44.930Z,42.05
2018-02-20T10:37:47.417Z,42.11
2018-02-20T10:38:49.916Z,42.16
2018-02-20T10:39:52.409Z,42.45
2018-02-20T10:40:54.905Z,42.55
2018-02-20T10:41:57.399Z,42.61
2018-02-20T10:42:59.886Z,42.66
2018-02-20T10:44:02.367Z,42.71
2018-02-20T10:45:04.890Z,42.78
2018-02-20T10:46:07.377Z,42.84
2018-02-20T10:47:09.859Z,42.93
2018-02-20T10:48:12.355Z,42.99
2018-02-20T10:49:14.852Z,43.07
2018-02-20T10:50:17.346Z,43.13
2018-02-20T10:51:19.885Z,43.18
2018-02-20T10:52:22.417Z,43.25
2018-02-20T10:53:24.954Z,43.29
2018-02-20T10:54:27.476Z,43.34
2018-02-20T10:55:30.282Z,43.38
2018-02-20T10:56:32.777Z,43.42
2018-02-20T10:57:35.260Z,43.47
2018-02-20T10:58:38.426Z,43.50
2018-02-20T10:59:40.900Z,43.53
2018-02-20T11:00:43.392Z,43.56
2018-02-20T11:01:45.894Z,43.60
2018-02-20T11:02:48.371Z,43.64
2018-02-20T11:03:50.870Z,43.68
2018-02-20T11:04:53.362Z,43.71
2018-02-20T11:05:55.872Z,43.75
2018-02-20T11:06:58.359Z,43.78
2018-02-20T11:08:00.838Z,43.82
2018-02-20T11:09:04.113Z,43.86
2018-02-20T11:10:06.609Z,43.88
2018-02-20T11:11:09.140Z,43.90
2018-02-20T11:12:11.633Z,43.93
2018-02-20T11:13:14.128Z,43.97
2018-02-20T11:14:16.627Z,43.98
2018-02-20T11:15:19.103Z,43.99
2018-02-20T11:16:21.598Z,44.02
2018-02-20T11:17:24.096Z,44.01
2018-02-20T11:18:26.612Z,44.06
2018-02-20T11:19:29.101Z,44.08
2018-02-20T11:20:31.593Z,44.10
2018-02-20T11:21:34.067Z,44.13
2018-02-20T11:22:36.543Z,44.15
2018-02-20T11:23:39.058Z,44.16
2018-02-20T11:24:41.564Z,44.17
2018-02-20T11:25:44.053Z,44.20
2018-02-20T11:26:46.528Z,44.24
2018-02-20T11:27:49.007Z,44.27
2018-02-20T11:28:51.481Z,44.28
2018-02-20T11:29:53.974Z,44.30
2018-02-20T11:30:56.524Z,44.30
2018-02-20T11:31:59.110Z,44.32
2018-02-20T11:33:01.601Z,44.33
2018-02-20T11:34:04.079Z,44.35
2018-02-20T11:35:06.573Z,44.37
2018-02-20T11:36:09.157Z,44.38
2018-02-20T11:37:11.671Z,44.39
2018-02-20T11:38:14.167Z,44.37
2018-02-20T11:39:16.654Z,44.38
2018-02-20T11:40:19.123Z,44.40
2018-02-20T11:41:21.621Z,44.39
2018-02-20T11:42:24.122Z,44.42
2018-02-20T11:43:26.610Z,44.42
2018-02-20T11:44:29.102Z,44.43
2018-02-20T11:45:31.589Z,44.45
2018-02-20T11:46:34.062Z,44.46
2018-02-20T11:47:36.544Z,44.47
2018-02-20T11:48:39.027Z,44.49
2018-02-20T11:49:41.529Z,44.49
2018-02-20T11:50:44.021Z,44.52
2018-02-20T11:51:46.502Z,44.52
2018-02-20T11:52:48.976Z,44.51
2018-02-20T11:53:51.452Z,44.50
2018-02-20T11:54:54.008Z,44.50
2018-02-20T11:55:56.492Z,44.52
2018-02-20T11:56:58.981Z,44.55
2018-02-20T11:58:01.455Z,44.54
2018-02-20T11:59:03.946Z,44.54
2018-02-20T12:00:06.428Z,44.53
2018-02-20T12:01:08.903Z,44.53
2018-02-20T12:02:11.378Z,44.54
2018-02-20T12:03:13.860Z,44.56
2018-02-20T12:04:16.350Z,44.58
2018-02-20T12:05:18.843Z,44.60
2018-02-20T12:06:21.334Z,44.63
2018-02-20T12:07:23.821Z,44.64
2018-02-20T12:08:26.315Z,44.66
2018-02-20T12:09:28.813Z,44.68
2018-02-20T12:10:31.306Z,44.69
2018-02-20T12:11:33.792Z,44.69
2018-02-20T12:12:36.264Z,44.70
2018-02-20T12:13:38.748Z,44.73
2018-02-20T12:14:41.256Z,44.76
2018-02-20T12:15:43.766Z,44.76
2018-02-20T12:16:46.255Z,44.77
2018-02-20T12:17:48.741Z,44.74
2018-02-20T12:18:51.233Z,44.70
2018-02-20T12:19:53.707Z,44.59
2018-02-20T12:20:56.193Z,44.60
2018-02-20T12:21:58.669Z,44.58
2018-02-20T12:23:01.142Z,44.55
2018-02-20T12:24:03.641Z,44.33
2018-02-20T12:25:06.111Z,44.05
2018-02-20T12:26:08.588Z,43.72
2018-02-20T12:27:11.060Z,43.36
2018-02-20T12:28:13.555Z,42.95
2018-02-20T12:29:16.046Z,42.50
2018-02-20T12:30:18.542Z,42.13
2018-02-20T12:31:21.019Z,41.84
2018-02-20T12:32:23.514Z,41.63
2018-02-20T12:33:26.006Z,41.36
2018-02-20T12:34:28.493Z,41.19
2018-02-20T12:35:30.975Z,41.06
2018-02-20T12:36:33.451Z,40.96
2018-02-20T12:37:35.930Z,40.93
2018-02-20T12:38:38.419Z,40.89
2018-02-20T12:39:40.909Z,40.85
2018-02-20T12:40:43.395Z,40.83
2018-02-20T12:41:45.871Z,40.82
2018-02-20T12:42:48.352Z,40.79
2018-02-20T12:43:50.833Z,40.69
2018-02-20T12:44:53.313Z,40.54
2018-02-20T12:45:55.779Z,40.48
2018-02-20T12:46:58.243Z,40.42
2018-02-20T12:48:00.780Z,40.32
2018-02-20T12:49:03.233Z,40.25
2018-02-20T12:50:05.801Z,40.12
2018-02-20T12:51:08.280Z,40.06
2018-02-20T12:52:10.761Z,39.93
2018-02-20T12:53:13.266Z,39.97
2018-02-20T12:54:15.835Z,40.01
2018-02-20T12:55:18.352Z,40.00
2018-02-20T12:56:20.830Z,40.00
2018-02-20T12:57:23.317Z,40.06
2018-02-20T12:58:25.807Z,40.14
2018-02-20T12:59:28.275Z,40.18
2018-02-20T13:00:30.769Z,40.18
2018-02-20T13:01:33.253Z,40.12
2018-02-20T13:02:35.733Z,40.01
2018-02-20T13:03:38.203Z,39.94
2018-02-20T13:04:40.685Z,39.81
2018-02-20T13:05:43.179Z,39.73
2018-02-20T13:06:45.655Z,39.67
2018-02-20T13:07:48.133Z,39.60
2018-02-20T13:08:50.614Z,39.56
2018-02-20T13:09:53.083Z,39.58
2018-02-20T13:10:55.590Z,39.61
2018-02-20T13:11:58.093Z,39.65
2018-02-20T13:13:00.602Z,39.68
2018-02-20T13:14:03.142Z,39.74
2018-02-20T13:15:05.612Z,39.79
2018-02-20T13:16:08.079Z,39.80
2018-02-20T13:17:10.558Z,39.80
2018-02-20T13:18:13.033Z,39.76
2018-02-20T13:19:15.504Z,39.70
2018-02-20T13:20:17.971Z,39.58
2018-02-20T13:21:20.484Z,39.32
2018-02-20T13:22:22.946Z,39.06
2018-02-20T13:23:25.425Z,39.21
2018-02-20T13:24:27.916Z,39.20
2018-02-20T13:25:30.384Z,39.12
2018-02-20T13:26:32.847Z,39.14
2018-02-20T13:27:35.330Z,39.17
2018-02-20T13:28:37.803Z,39.17
2018-02-20T13:29:40.272Z,39.28
2018-02-20T13:30:42.761Z,39.32
2018-02-20T13:31:45.232Z,39.39
2018-02-20T13:32:47.700Z,39.45
2018-02-20T13:33:50.167Z,39.48
2018-02-20T13:34:52.637Z,39.43
2018-02-20T13:35:55.122Z,39.40
2018-02-20T13:36:57.586Z,39.28
2018-02-20T13:38:00.056Z,39.25
2018-02-20T13:39:02.536Z,39.09
2018-02-20T13:40:05.018Z,39.00
2018-02-20T13:41:07.505Z,38.91
2018-02-20T13:42:09.971Z,38.89
2018-02-20T13:43:12.439Z,38.99
2018-02-20T13:44:14.907Z,38.97
2018-02-20T13:45:17.371Z,39.00
2018-02-20T13:46:19.849Z,39.04
2018-02-20T13:47:22.321Z,39.13
2018-02-20T13:48:24.805Z,39.20
2018-02-20T13:49:27.282Z,39.25
2018-02-20T13:50:29.750Z,39.28
2018-02-20T13:51:32.237Z,39.27
2018-02-20T13:52:34.715Z,39.31
2018-02-20T13:53:37.197Z,39.24
2018-02-20T13:54:39.715Z,39.13
2018-02-20T13:55:42.201Z,39.07
2018-02-20T13:56:44.689Z,39.02
2018-02-20T13:57:47.187Z,38.98
2018-02-20T13:58:49.666Z,38.94
2018-02-20T13:59:52.139Z,38.91
2018-02-20T14:00:54.621Z,38.90
2018-02-20T14:01:57.098Z,38.93
2018-02-20T14:02:59.583Z,38.94
2018-02-20T14:04:02.073Z,39.03
2018-02-20T14:05:04.542Z,39.12
2018-02-20T14:06:07.010Z,39.19
2018-02-20T14:07:09.483Z,39.26
2018-02-20T14:08:11.956Z,39.27
2018-02-20T14:09:14.442Z,39.22
2018-02-20T14:10:16.926Z,39.17
2018-02-20T14:11:19.416Z,39.13
2018-02-20T14:12:21.904Z,39.03
2018-02-20T14:13:24.389Z,38.94
2018-02-20T14:14:26.920Z,38.91
2018-02-20T14:15:29.395Z,38.84
2018-02-20T14:16:31.864Z,38.83
2018-02-20T14:17:34.341Z,38.81
2018-02-20T14:18:36.817Z,38.81
2018-02-20T14:19:39.283Z,38.89
2018-02-20T14:20:41.775Z,38.92
2018-02-20T14:21:44.262Z,39.00
2018-02-20T14:22:46.841Z,39.06
2018-02-20T14:23:49.335Z,39.10
2018-02-20T14:24:51.806Z,39.19
2018-02-20T14:25:54.532Z,39.18
2018-02-20T14:26:57.239Z,39.09
2018-02-20T14:27:59.717Z,39.05
2018-02-20T14:29:02.194Z,39.00
2018-02-20T14:30:04.724Z,38.87
2018-02-20T14:31:07.187Z,38.78